Time;durP1;ratioP1;P1;durP2;ratioP2;P2;SDS_P1;SDS_P2;PMS_P1;PMS_P2;Temp;Humidity;BMP_temperature;BMP_pressure;BME280_temperature;BME280_humidity;BME280_pressure;Samples;Min_cycle;Max_cycle;Signal;HPM_P1;HPM_P2
2022/07/18 00:01:10;;;;;;;3.73;2.00;;;;;;;-145.69;73.70;71860.09;5075614;28;20203;-77
2022/07/18 00:03:37;;;;;;;4.73;2.00;;;;;;;-145.69;76.01;71860.09;5075654;28;20202;-78
2022/07/18 00:06:04;;;;;;;2.67;1.67;;;;;;;-145.69;77.51;71864.06;5075915;28;20609;-77
2022/07/18 00:08:32;;;;;;;4.50;1.90;;;;;;;-145.69;76.08;71868.06;5075822;28;20203;-78
2022/07/18 00:11:01;;;;;;;3.33;1.70;;;;;;;-145.69;76.31;71878.00;5075067;28;20202;-77
2022/07/18 00:13:27;;;;;;;2.37;1.40;;;;;;;-145.69;75.03;71883.97;5075192;28;20191;-77
2022/07/18 00:15:56;;;;;;;2.03;1.50;;;;;;;-145.69;75.36;71874.03;5075831;28;20206;-78
2022/07/18 00:18:23;;;;;;;2.20;1.33;;;;;;;-145.69;77.40;71881.97;5075389;28;20234;-77
2022/07/18 00:20:49;;;;;;;4.27;1.60;;;;;;;-145.69;73.75;71876.00;5075594;28;20199;-78
2022/07/18 00:23:16;;;;;;;4.27;1.60;;;;;;;-145.69;73.01;71872.03;5075503;28;20199;-77
2022/07/18 00:25:42;;;;;;;3.30;1.50;;;;;;;-145.69;74.36;71870.03;5074812;28;20202;-77
2022/07/18 00:28:11;;;;;;;5.47;1.40;;;;;;;-145.69;69.04;71844.16;5075263;28;20534;-77
2022/07/18 00:30:37;;;;;;;1.80;1.40;;;;;;;-145.69;67.80;71840.19;5074928;28;20248;-77
2022/07/18 00:33:07;;;;;;;3.50;1.52;;;;;;;-145.69;69.29;71834.22;5074659;28;20936;-77
2022/07/18 00:35:34;;;;;;;1.63;1.40;;;;;;;-145.69;71.05;71844.16;5075305;28;20207;-77
2022/07/18 00:38:02;;;;;;;2.67;1.40;;;;;;;-145.69;70.53;71852.13;5075137;28;20238;-77
2022/07/18 00:40:28;;;;;;;2.50;1.47;;;;;;;-145.69;73.32;71856.09;5074811;28;20732;-77
2022/07/18 00:42:55;;;;;;;2.57;1.50;;;;;;;-145.69;70.96;71852.13;5074722;28;20199;-78
2022/07/18 00:45:21;;;;;;;4.55;1.40;;;;;;;-145.69;73.27;71876.00;5074852;28;20206;-77
2022/07/18 00:47:50;;;;;;;3.27;1.63;;;;;;;-145.69;75.52;71883.97;5074854;28;20716;-77
2022/07/18 00:50:19;;;;;;;1.90;1.50;;;;;;;-145.69;71.67;71874.03;5073767;28;20756;-77
2022/07/18 00:52:45;;;;;;;3.80;1.57;;;;;;;-145.69;73.66;71878.00;5074812;28;20205;-77
2022/07/18 00:55:16;;;;;;;5.43;1.77;;;;;;;-145.69;73.87;71874.03;5074481;28;20195;-78
2022/07/18 00:57:43;;;;;;;1.80;1.40;;;;;;;-145.69;71.64;71864.06;5074453;28;20576;-77
2022/07/18 01:03:00;;;;;;;3.50;2.03;;;;;;;-145.69;77.26;71923.78;5074601;28;20206;-77
2022/07/18 01:05:29;;;;;;;3.37;1.67;;;;;;;-145.69;77.54;71923.78;5074168;28;20191;-77
2022/07/18 01:07:58;;;;;;;4.03;1.70;;;;;;;-145.69;80.51;71943.69;5074460;28;20202;-77
2022/07/18 01:10:26;;;;;;;3.27;1.50;;;;;;;-145.69;81.21;71961.59;5074346;28;20546;-78
2022/07/18 01:12:53;;;;;;;6.53;2.27;;;;;;;-145.69;82.60;71971.53;5074554;28;20199;-77
2022/07/18 01:15:19;;;;;;;3.40;1.30;;;;;;;-145.69;76.98;71939.69;5074498;28;20198;-77
2022/07/18 01:17:49;;;;;;;2.53;1.43;;;;;;;-145.69;72.64;71899.88;5073993;28;20226;-77
2022/07/18 01:20:16;;;;;;;2.83;1.63;;;;;;;-145.69;70.97;71881.97;5071234;28;20794;-77
2022/07/18 01:22:44;;;;;;;5.47;1.87;;;;;;;-145.69;70.82;71858.09;5073289;28;20202;-77
2022/07/18 01:25:14;;;;;;;2.53;1.50;;;;;;;-145.69;71.63;71864.06;5073956;28;20198;-78
2022/07/18 01:27:41;;;;;;;4.10;1.80;;;;;;;-145.69;73.02;71868.06;5060486;28;20282;-78
2022/07/18 01:30:10;;;;;;;2.10;1.50;;;;;;;-145.69;78.21;71887.94;5068538;28;20204;-77
2022/07/18 01:32:36;;;;;;;3.23;1.67;;;;;;;-145.69;77.65;71903.88;5054058;28;20570;-78
2022/07/18 01:35:06;;;;;;;2.47;1.80;;;;;;;-145.69;79.47;71923.78;5053925;28;20204;-78
2022/07/18 01:37:32;;;;;;;3.90;1.70;;;;;;;-145.69;82.16;71959.59;5052806;28;20236;-77
2022/07/18 01:40:02;;;;;;;3.13;1.90;;;;;;;-145.69;84.01;71975.50;5053998;28;20226;-77
2022/07/18 01:42:29;;;;;;;4.27;1.80;;;;;;;-145.69;80.46;71963.56;5053909;28;20272;-77
2022/07/18 01:44:58;;;;;;;2.47;1.70;;;;;;;-145.69;81.62;71985.47;5053759;28;20662;-78
2022/07/18 01:47:24;;;;;;;4.63;1.93;;;;;;;-145.69;77.75;71953.63;5053665;28;20670;-77
2022/07/18 01:49:51;;;;;;;5.33;1.60;;;;;;;-145.69;79.94;71963.56;5053107;28;20232;-77
2022/07/18 01:52:17;;;;;;;1.70;1.60;;;;;;;-145.69;82.81;71971.53;5053843;28;20278;-77
2022/07/18 01:54:44;;;;;;;2.00;1.57;;;;;;;-145.69;83.45;72001.38;5053704;28;20646;-77
2022/07/18 01:57:12;;;;;;;3.50;1.67;;;;;;;-145.69;80.48;71971.53;5064079;28;20233;-77
2022/07/18 01:59:38;;;;;;;2.43;1.40;;;;;;;-145.69;81.28;71985.47;5073254;28;20206;-77
2022/07/18 02:02:07;;;;;;;2.43;1.87;;;;;;;-145.69;81.39;71983.47;5073224;28;20680;-77
2022/07/18 02:07:17;;;;;;;2.97;1.73;;;;;;;-145.69;77.03;71947.66;5064700;28;20278;-77
2022/07/18 02:09:46;;;;;;;2.57;1.47;;;;;;;-145.69;81.67;71961.59;5053419;28;20195;-78
2022/07/18 02:12:14;;;;;;;2.17;1.77;;;;;;;-145.69;84.09;71995.41;5053297;28;20204;-78
2022/07/18 02:14:41;;;;;;;2.67;1.50;;;;;;;-145.69;88.18;72025.28;5053120;28;20195;-77
2022/07/18 02:17:09;;;;;;;3.47;1.70;;;;;;;-145.69;84.30;72023.28;5053687;28;20207;-77
2022/07/18 02:19:36;;;;;;;3.80;1.95;;;;;;;-145.69;86.41;72027.25;5052223;28;20448;-77
2022/07/18 02:22:02;;;;;;;2.67;1.53;;;;;;;-145.69;86.79;72041.19;5053279;28;20203;-77
2022/07/18 02:24:29;;;;;;;4.10;1.77;;;;;;;-145.69;85.46;72031.25;5052239;28;20682;-77
2022/07/18 02:26:57;;;;;;;2.07;1.70;;;;;;;-145.69;86.11;72039.19;5061628;28;20665;-78
2022/07/18 02:29:25;;;;;;;2.60;1.80;;;;;;;-145.69;84.75;72035.22;5072866;28;20203;-78
2022/07/18 02:31:57;;;;;;;3.30;1.70;;;;;;;-145.69;83.80;72037.22;5073165;28;20226;-78
2022/07/18 02:34:26;;;;;;;2.63;1.70;;;;;;;-145.69;84.14;72041.19;5073051;28;20205;-77
2022/07/18 02:36:53;;;;;;;2.30;1.93;;;;;;;-145.69;83.25;72035.22;5072830;28;20662;-78
2022/07/18 02:39:19;;;;;;;2.23;1.87;;;;;;;-145.69;82.06;72035.22;5072974;28;20233;-77
2022/07/18 02:41:46;;;;;;;2.20;1.63;;;;;;;-145.69;82.55;72037.22;5072958;28;20221;-77
2022/07/18 02:44:13;;;;;;;2.80;1.57;;;;;;;-145.69;76.82;71971.53;5072759;28;20201;-77
2022/07/18 02:46:41;;;;;;;3.17;1.70;;;;;;;-145.69;77.20;71951.63;5072880;28;20201;-77
2022/07/18 02:49:07;;;;;;;5.03;1.67;;;;;;;-145.69;76.16;71943.69;5072559;28;20206;-77
2022/07/18 02:51:34;;;;;;;2.10;1.67;;;;;;;-145.69;74.43;71907.84;5072947;28;20561;-77
2022/07/18 02:54:00;;;;;;;2.37;1.47;;;;;;;-145.69;71.80;71901.88;5072712;28;20210;-77
2022/07/18 02:56:30;;;;;;;3.90;1.50;;;;;;;-145.69;72.67;71903.88;5072645;28;20222;-77
2022/07/18 02:58:56;;;;;;;2.20;1.60;;;;;;;-145.69;71.65;71917.81;5072739;28;20234;-77
2022/07/18 03:01:23;;;;;;;2.23;1.50;;;;;;;-145.69;73.23;71935.72;5072679;28;20213;-77
2022/07/18 03:03:51;;;;;;;1.77;1.40;;;;;;;-145.69;71.92;71931.72;5072758;28;20226;-77
2022/07/18 03:06:17;;;;;;;1.77;1.13;;;;;;;-145.69;70.20;71925.75;5072783;28;20195;-77
2022/07/18 03:08:44;;;;;;;2.83;1.43;;;;;;;-145.69;71.55;71929.75;5072631;28;20209;-77
2022/07/18 03:11:10;;;;;;;2.00;1.50;;;;;;;-145.69;72.64;71939.69;5072510;28;20206;-77
2022/07/18 03:13:38;;;;;;;5.90;1.40;;;;;;;-145.69;72.82;71941.69;5072457;28;20205;-78
2022/07/18 03:16:05;;;;;;;3.10;1.80;;;;;;;-145.69;72.53;71935.72;5072512;28;20241;-77
2022/07/18 03:18:31;;;;;;;3.80;1.60;;;;;;;-145.69;72.57;71935.72;5072500;28;20727;-77
2022/07/18 03:21:02;;;;;;;3.57;1.60;;;;;;;-145.69;70.74;71931.72;5072421;28;20653;-77
2022/07/18 03:23:28;;;;;;;1.73;1.40;;;;;;;-145.69;67.44;71899.88;5072367;28;20199;-77
2022/07/18 03:25:55;;;;;;;5.80;1.40;;;;;;;-145.69;68.89;71911.84;5072164;28;20202;-78
2022/07/18 03:28:27;;;;;;;4.73;1.50;;;;;;;-145.69;68.79;71889.94;5072556;28;20214;-77
2022/07/18 03:30:58;;;;;;;4.20;1.40;;;;;;;-145.69;67.12;71876.00;5072381;28;20206;-78
2022/07/18 03:33:25;;;;;;;3.30;1.50;;;;;;;-145.69;68.84;71891.94;5072654;28;20202;-77
2022/07/18 03:35:51;;;;;;;3.83;1.50;;;;;;;-145.69;69.65;71905.88;5072332;28;20198;-77
2022/07/18 03:38:19;;;;;;;2.70;1.77;;;;;;;-145.69;70.42;71919.78;5072181;28;20238;-78
2022/07/18 03:40:46;;;;;;;5.73;1.40;;;;;;;-145.69;71.20;71935.72;5072211;28;20568;-78
2022/07/18 03:43:14;;;;;;;3.17;1.50;;;;;;;-145.69;70.26;71933.72;5072432;28;20199;-77
2022/07/18 03:45:40;;;;;;;4.93;1.50;;;;;;;-145.69;71.27;71939.69;5072376;28;20203;-77
2022/07/18 03:48:07;;;;;;;1.80;1.40;;;;;;;-145.69;69.42;71923.78;5072224;28;20562;-77
2022/07/18 03:50:34;;;;;;;3.17;1.47;;;;;;;-145.69;72.42;71931.72;5072004;28;20231;-78
2022/07/18 03:53:01;;;;;;;2.87;1.70;;;;;;;-145.69;72.34;71927.75;5072352;28;20201;-77
2022/07/18 03:55:29;;;;;;;2.58;1.60;;;;;;;-145.69;72.25;71927.75;5071907;28;20445;-77
2022/07/18 03:57:55;;;;;;;5.97;1.63;;;;;;;-145.69;72.23;71923.78;5072129;28;20225;-77
2022/07/18 04:00:24;;;;;;;6.23;1.63;;;;;;;-145.69;70.02;71915.81;5072834;28;20199;-77
2022/07/18 04:02:53;;;;;;;5.03;2.00;;;;;;;-145.69;71.96;71927.75;5075641;28;20210;-77
2022/07/18 04:05:19;;;;;;;2.47;1.60;;;;;;;-145.69;72.85;71913.81;5074529;28;20441;-77
2022/07/18 04:07:48;;;;;;;2.47;1.50;;;;;;;-145.69;70.43;71897.91;5075776;28;20203;-77
2022/07/18 04:10:15;;;;;;;5.28;1.65;;;;;;;-145.69;72.11;71893.91;5075739;28;20286;-77
2022/07/18 04:12:52;;;;;;;2.97;1.45;;;;;;;-145.69;68.81;71870.03;5055126;28;20196;-77
2022/07/18 04:15:20;;;;;;;5.43;1.80;;;;;;;-145.69;70.32;71870.03;5055584;28;20257;-77
2022/07/18 04:17:47;;;;;;;4.50;2.03;;;;;;;-145.69;73.19;71883.97;5055442;28;20199;-77
2022/07/18 04:20:15;;;;;;;8.77;1.53;;;;;;;-145.69;73.21;71891.94;5055372;28;20650;-78
2022/07/18 04:22:45;;;;;;;6.83;1.87;;;;;;;-145.69;71.24;71881.97;5055514;28;20211;-77
2022/07/18 04:25:15;;;;;;;2.70;1.50;;;;;;;-145.69;75.14;71893.91;5055352;28;20203;-77
2022/07/18 04:27:44;;;;;;;4.68;1.90;;;;;;;-145.69;77.44;71913.81;5055266;28;20215;-77
2022/07/18 04:30:13;;;;;;;3.20;1.63;;;;;;;-145.69;75.72;71917.81;5055109;28;20570;-77
2022/07/18 04:32:42;;;;;;;3.57;1.67;;;;;;;-145.69;74.71;71911.84;5055006;28;20210;-77
2022/07/18 04:35:09;;;;;;;4.32;1.98;;;;;;;-145.69;77.58;71905.88;5069360;28;20229;-77
2022/07/18 04:37:36;;;;;;;3.47;1.77;;;;;;;-145.69;76.00;71893.91;5075119;28;20203;-77
2022/07/18 04:40:03;;;;;;;5.20;1.83;;;;;;;-145.69;77.86;71899.88;5075039;28;20230;-77
2022/07/18 04:42:31;;;;;;;3.37;1.73;;;;;;;-145.69;73.26;71868.06;5075033;28;20210;-77
2022/07/18 04:44:58;;;;;;;2.65;1.83;;;;;;;-145.69;73.60;71852.13;5075112;28;20202;-77
2022/07/18 04:47:26;;;;;;;5.73;1.90;;;;;;;-145.69;71.27;71826.25;5075002;28;20202;-77
2022/07/18 04:49:54;;;;;;;3.83;1.90;;;;;;;-145.69;72.91;71816.31;5074641;28;20231;-78
2022/07/18 04:52:24;;;;;;;5.38;1.85;;;;;;;-145.69;73.10;71808.34;5074796;28;20203;-77
2022/07/18 04:54:50;;;;;;;3.42;1.77;;;;;;;-145.69;71.00;71796.41;5074740;28;20289;-77
2022/07/18 04:57:19;;;;;;;2.58;1.90;;;;;;;-145.69;73.18;71792.44;5074536;28;20566;-78
2022/07/18 04:59:46;;;;;;;6.60;1.70;;;;;;;-145.69;72.12;71790.44;5074805;28;20616;-78
2022/07/18 05:02:15;;;;;;;5.40;1.83;;;;;;;-145.69;71.00;71778.50;5074717;28;20297;-77
2022/07/18 05:04:42;;;;;;;5.38;1.80;;;;;;;-145.69;72.56;71764.56;5074515;28;20199;-77
2022/07/18 05:07:09;;;;;;;4.60;2.30;;;;;;;-145.69;71.24;71744.66;5074609;28;20553;-77
2022/07/18 05:09:37;;;;;;;2.35;1.70;;;;;;;-145.69;70.01;71720.78;5074328;28;20228;-78
2022/07/18 05:12:04;;;;;;;5.80;1.90;;;;;;;-145.69;67.55;71694.91;5073911;28;20205;-78
2022/07/18 05:14:30;;;;;;;2.88;1.90;;;;;;;-145.69;72.56;71680.97;5073593;28;20445;-77
2022/07/18 05:16:57;;;;;;;4.50;1.60;;;;;;;-145.69;69.52;71673.03;5074098;28;20664;-77
2022/07/18 05:19:23;;;;;;;2.90;1.75;;;;;;;-145.69;71.01;71669.03;5074246;28;20680;-78
2022/07/18 05:21:51;;;;;;;6.03;1.50;;;;;;;-145.69;73.38;71661.09;5074324;28;20301;-78
2022/07/18 05:24:18;;;;;;;4.03;1.70;;;;;;;-145.69;68.73;71643.19;5073998;28;20649;-78
2022/07/18 05:26:45;;;;;;;2.47;1.75;;;;;;;-145.69;69.99;71641.19;5074333;28;20199;-78
2022/07/18 05:29:12;;;;;;;2.67;1.60;;;;;;;-145.69;71.35;71627.25;5074151;28;20202;-78
2022/07/18 05:31:39;;;;;;;2.60;1.75;;;;;;;-145.69;70.74;71611.34;5074215;28;20569;-77
2022/07/18 05:34:05;;;;;;;1.90;1.70;;;;;;;-145.69;69.19;71597.41;5073750;28;20198;-77
2022/07/18 05:36:32;;;;;;;2.17;1.75;;;;;;;-145.69;69.86;71585.47;5073676;28;20202;-77
2022/07/18 05:39:00;;;;;;;3.92;1.50;;;;;;;-145.69;71.45;71573.53;5073838;28;20226;-77
2022/07/18 05:41:27;;;;;;;2.45;1.90;;;;;;;-145.69;71.13;71571.53;5074014;28;20198;-77
2022/07/18 05:43:53;;;;;;;3.10;1.65;;;;;;;-145.69;70.97;71551.63;5073892;28;20206;-78
2022/07/18 05:46:19;;;;;;;5.40;1.58;;;;;;;-145.69;69.15;71521.78;5073755;28;20195;-77
2022/07/18 05:48:49;;;;;;;4.13;1.50;;;;;;;-145.69;68.82;71432.25;5073666;28;20198;-78
2022/07/18 05:51:15;;;;;;;5.22;1.65;;;;;;;-145.69;62.68;71350.66;5073451;28;20686;-78
2022/07/18 05:53:42;;;;;;;2.22;1.27;;;;;;;-145.69;59.13;71215.34;5073512;28;20222;-78
2022/07/18 05:56:11;;;;;;;2.45;1.30;;;;;;;-145.69;56.35;71086.03;5073398;28;20676;-78
2022/07/18 05:58:37;;;;;;;2.67;1.50;;;;;;;-145.69;52.19;70976.59;5073495;28;20566;-78
2022/07/18 06:01:04;;;;;;;2.97;1.50;;;;;;;-145.69;52.89;70964.66;5073471;28;20198;-78
2022/07/18 06:03:30;;;;;;;3.85;1.35;;;;;;;-145.69;50.16;70904.97;5073205;28;20206;-79
2022/07/18 06:05:57;;;;;;;2.30;1.48;;;;;;;-145.69;51.30;70904.97;5073136;28;20654;-78
2022/07/18 06:08:24;;;;;;;2.10;1.23;;;;;;;-145.69;51.40;70904.97;5073454;28;20211;-78
2022/07/18 06:10:50;;;;;;;3.80;1.30;;;;;;;-145.69;48.17;70897.00;5070490;28;20277;-78
2022/07/18 06:13:18;;;;;;;1.33;1.10;;;;;;;-145.69;50.84;70885.06;5053357;28;20204;-76
2022/07/18 06:15:44;;;;;;;3.80;1.30;;;;;;;-145.69;49.82;70889.03;5053257;28;20210;-77
2022/07/18 06:18:11;;;;;;;2.20;1.30;;;;;;;-145.69;51.53;70877.09;5053282;28;20210;-76
2022/07/18 06:20:37;;;;;;;2.40;1.08;;;;;;;-145.69;46.44;70825.38;5052960;28;20235;-76
2022/07/18 06:23:04;;;;;;;3.03;1.10;;;;;;;-145.69;45.23;70777.63;5052740;28;20204;-76
2022/07/18 06:25:30;;;;;;;4.07;1.17;;;;;;;-145.69;45.82;70745.78;5053265;28;20206;-76
2022/07/18 06:27:57;;;;;;;1.70;1.13;;;;;;;-145.69;46.27;70757.72;5053134;28;20206;-76
2022/07/18 06:30:25;;;;;;;2.55;1.30;;;;;;;-145.69;45.84;70727.88;5053071;28;20247;-76
2022/07/18 06:32:51;;;;;;;2.63;1.38;;;;;;;-145.69;45.09;70721.91;5053052;28;20207;-76
2022/07/18 06:35:18;;;;;;;1.95;1.15;;;;;;;-145.69;49.27;70781.59;5069935;28;20191;-76
2022/07/18 06:37:45;;;;;;;1.33;1.00;;;;;;;-145.69;49.09;70761.72;5073113;28;20540;-75
2022/07/18 06:40:12;;;;;;;4.53;1.50;;;;;;;-145.69;48.93;70739.81;5072965;28;20226;-76
2022/07/18 06:42:38;;;;;;;3.38;1.02;;;;;;;-145.69;46.10;70706.00;5072927;28;20205;-76
2022/07/18 06:45:06;;;;;;;2.80;1.20;;;;;;;-145.69;44.11;70672.19;5072980;28;20221;-76
2022/07/18 06:47:34;;;;;;;2.25;1.27;;;;;;;-145.69;43.41;70668.19;5072812;28;20203;-76
2022/07/18 06:50:00;;;;;;;2.80;1.30;;;;;;;-145.69;48.83;70698.03;5072381;28;20920;-79
2022/07/18 06:52:27;;;;;;;3.42;1.45;;;;;;;-145.69;47.70;70741.81;5072713;28;20206;-78
2022/07/18 06:54:53;;;;;;;1.77;1.40;;;;;;;-145.69;47.62;70747.78;5072545;28;20377;-78
2022/07/18 06:57:20;;;;;;;1.73;1.40;;;;;;;-145.69;50.20;70805.47;5072962;28;20578;-79
2022/07/18 06:59:46;;;;;;;3.25;1.60;;;;;;;-145.69;51.07;70805.47;5072040;28;20824;-77
2022/07/18 07:02:12;;;;;;;1.63;1.30;;;;;;;-145.69;48.44;70809.47;5072769;28;20195;-78
2022/07/18 07:04:40;;;;;;;2.22;1.30;;;;;;;-145.69;47.10;70825.38;5072267;28;20281;-78
2022/07/18 07:07:07;;;;;;;2.10;1.50;;;;;;;-145.69;45.14;70825.38;5072881;28;20569;-78
2022/07/18 07:09:33;;;;;;;1.98;1.50;;;;;;;-145.69;45.75;70835.31;5072799;28;20206;-79
2022/07/18 07:11:59;;;;;;;2.58;1.65;;;;;;;-145.69;49.23;70807.47;5072756;28;20210;-77
2022/07/18 07:14:26;;;;;;;5.13;1.55;;;;;;;-145.69;45.50;70807.47;5072456;28;20203;-78
2022/07/18 07:16:52;;;;;;;4.15;1.60;;;;;;;-145.69;46.23;70795.53;5072586;28;20198;-78
2022/07/18 07:19:18;;;;;;;2.50;1.45;;;;;;;-145.69;45.16;70781.59;5072463;28;20221;-78
2022/07/18 07:21:46;;;;;;;2.55;1.63;;;;;;;-145.69;45.42;70763.69;5072785;28;20221;-78
2022/07/18 07:24:13;;;;;;;4.00;1.52;;;;;;;-145.69;44.83;70753.75;5072663;28;20246;-78
2022/07/18 07:26:39;;;;;;;7.82;1.80;;;;;;;-145.69;44.91;70761.72;5072413;28;20198;-78
2022/07/18 07:29:05;;;;;;;4.15;1.67;;;;;;;-145.69;45.73;70729.88;5072505;28;20198;-78
2022/07/18 07:31:32;;;;;;;2.33;1.55;;;;;;;-145.69;43.61;70713.97;5072447;28;20199;-78
2022/07/18 07:33:58;;;;;;;3.13;1.50;;;;;;;-145.69;45.67;70682.13;5072308;28;20199;-78
2022/07/18 07:36:25;;;;;;;2.10;1.50;;;;;;;-145.69;46.37;70678.16;5074988;28;20604;-78
2022/07/18 07:38:52;;;;;;;2.17;1.60;;;;;;;-145.69;43.29;70666.22;5076132;28;20669;-78
2022/07/18 07:41:19;;;;;;;3.80;1.77;;;;;;;-145.69;44.99;70656.25;5076224;28;20206;-78
2022/07/18 07:43:45;;;;;;;2.65;1.77;;;;;;;-145.69;42.57;70658.25;5076159;28;20199;-78
2022/07/18 07:46:12;;;;;;;4.95;1.70;;;;;;;-145.69;44.78;70618.47;5075975;28;20195;-78
2022/07/18 07:48:38;;;;;;;2.10;1.55;;;;;;;-145.69;46.85;70604.53;5076120;28;20669;-76
2022/07/18 07:51:05;;;;;;;4.65;1.40;;;;;;;-145.69;42.51;70582.66;5075836;28;20234;-76
2022/07/18 07:53:32;;;;;;;3.20;1.40;;;;;;;-145.69;46.11;70558.78;5076105;28;20203;-77
2022/07/18 07:56:00;;;;;;;4.72;1.67;;;;;;;-145.69;42.79;70550.81;5075788;28;20658;-77
2022/07/18 07:58:26;;;;;;;2.60;1.50;;;;;;;-145.69;43.64;70540.88;5075221;28;20198;-77
2022/07/18 08:00:53;;;;;;;3.13;1.30;;;;;;;-145.69;44.66;70528.94;5075346;28;20218;-76
2022/07/18 08:03:21;;;;;;;2.95;1.58;;;;;;;-145.69;44.48;70519.00;5075774;28;20199;-77
2022/07/18 08:05:51;;;;;;;7.35;1.45;;;;;;;-145.69;39.85;70544.84;5075162;28;20195;-76
2022/07/18 08:08:19;;;;;;;3.47;1.52;;;;;;;-145.69;41.21;70566.75;5075737;28;20202;-76
2022/07/18 08:10:49;;;;;;;4.55;1.60;;;;;;;-145.69;44.44;70536.91;5075650;28;20210;-76
2022/07/18 08:13:17;;;;;;;5.75;1.50;;;;;;;-145.69;46.76;70503.06;5075470;28;20329;-77
2022/07/18 08:15:45;;;;;;;4.53;1.60;;;;;;;-145.69;42.81;70485.16;5075571;28;20198;-77
2022/07/18 08:18:11;;;;;;;7.32;1.80;;;;;;;-145.69;41.56;70487.16;5058261;28;20199;-76
2022/07/18 08:20:38;;;;;;;5.95;1.52;;;;;;;-145.69;40.76;70487.16;5055521;28;20716;-77
2022/07/18 08:23:06;;;;;;;3.38;1.50;;;;;;;-145.69;37.41;70499.09;5055356;28;20207;-76
2022/07/18 08:25:36;;;;;;;4.45;1.45;;;;;;;-145.69;39.34;70473.22;5055875;28;20291;-77
2022/07/18 08:28:03;;;;;;;2.45;1.45;;;;;;;-145.69;35.66;70447.38;5055186;28;20213;-77
2022/07/18 08:30:35;;;;;;;1.90;1.40;;;;;;;-145.69;37.18;70435.44;5055241;28;20207;-77
2022/07/18 08:33:01;;;;;;;2.00;1.50;;;;;;;-145.69;37.74;70417.53;5055051;28;20231;-77
2022/07/18 08:35:29;;;;;;;2.33;1.38;;;;;;;-145.69;37.35;70433.44;5055037;28;20286;-77
2022/07/18 08:37:55;;;;;;;4.78;1.30;;;;;;;-145.69;35.31;70437.44;5075013;28;20294;-77
2022/07/18 08:40:22;;;;;;;3.47;1.40;;;;;;;-145.69;35.85;70425.50;5074973;28;20239;-77
2022/07/18 08:42:52;;;;;;;3.50;1.60;;;;;;;-145.69;35.41;70455.34;5075201;28;20295;-77
2022/07/18 08:45:21;;;;;;;3.40;1.42;;;;;;;-145.69;36.07;70455.34;5075164;28;20199;-77
2022/07/18 08:47:52;;;;;;;2.00;1.20;;;;;;;-145.69;34.58;70435.44;5074452;28;20199;-77
2022/07/18 08:50:19;;;;;;;1.65;1.23;;;;;;;-145.69;33.77;70423.50;5075120;28;20230;-77
2022/07/18 08:52:46;;;;;;;3.08;1.52;;;;;;;-145.69;33.67;70415.53;5074775;28;20297;-76
2022/07/18 08:55:14;;;;;;;2.08;1.50;;;;;;;-145.69;33.75;70443.41;5074990;28;20209;-77
2022/07/18 08:57:40;;;;;;;3.28;1.55;;;;;;;-145.69;35.39;70407.59;5074718;28;20723;-77
2022/07/18 09:00:09;;;;;;;1.65;1.40;;;;;;;-145.69;34.77;70387.69;5074611;28;20234;-77
2022/07/18 09:02:36;;;;;;;5.53;1.38;;;;;;;-145.69;34.32;70365.81;5074742;28;20207;-77
2022/07/18 09:05:06;;;;;;;1.88;1.40;;;;;;;-145.69;34.39;70365.81;5074502;28;20206;-76
2022/07/18 09:07:34;;;;;;;1.60;1.30;;;;;;;-145.69;33.99;70347.91;5074334;28;20191;-76
2022/07/18 09:10:03;;;;;;;8.52;2.22;;;;;;;-145.69;33.70;70349.91;5074664;28;20229;-77
2022/07/18 09:12:31;;;;;;;6.18;1.33;;;;;;;-145.69;33.67;70371.78;5074449;28;20202;-76
2022/07/18 09:15:04;;;;;;;4.32;1.40;;;;;;;-145.69;35.96;70351.88;5074520;28;20237;-77
2022/07/18 09:17:36;;;;;;;3.13;1.30;;;;;;;-145.69;34.78;70345.91;5074427;28;20221;-77
2022/07/18 09:20:10;;;;;;;2.42;1.40;;;;;;;-145.69;33.64;70375.75;5074540;28;20218;-77
2022/07/18 09:22:39;;;;;;;4.97;1.60;;;;;;;-145.69;34.11;70371.78;5074363;28;20202;-76
2022/07/18 09:25:13;;;;;;;2.15;1.45;;;;;;;-145.69;35.11;70363.81;5074263;28;20198;-77
2022/07/18 09:27:44;;;;;;;4.32;1.55;;;;;;;-145.69;34.84;70391.66;5074424;28;20202;-76
2022/07/18 09:30:16;;;;;;;5.15;1.95;;;;;;;-145.69;35.17;70399.63;5073892;28;20676;-76
2022/07/18 09:32:45;;;;;;;3.42;1.38;;;;;;;-145.69;34.15;70379.72;5074308;28;20203;-76
2022/07/18 09:35:14;;;;;;;3.00;1.65;;;;;;;-145.69;34.64;70355.88;5074039;28;20195;-76
2022/07/18 09:37:41;;;;;;;2.53;1.50;;;;;;;-145.69;34.67;70363.81;5053918;28;20210;-77
2022/07/18 09:40:20;;;;;;;2.75;1.30;;;;;;;-145.69;34.83;70351.88;5053908;28;20246;-77
2022/07/18 09:42:54;;;;;;;4.47;1.50;;;;;;;-145.69;33.37;70351.88;5053777;28;20195;-77
2022/07/18 09:45:29;;;;;;;5.15;1.40;;;;;;;-145.69;34.51;70332.00;5053968;28;20245;-76
2022/07/18 09:47:58;;;;;;;1.98;1.30;;;;;;;-145.69;33.56;70326.03;5053823;28;20225;-77
2022/07/18 09:50:31;;;;;;;1.75;1.25;;;;;;;-145.69;34.31;70304.13;5053473;28;20309;-78
2022/07/18 09:53:02;;;;;;;3.13;1.35;;;;;;;-145.69;34.00;70296.19;5053659;28;20200;-77
2022/07/18 09:55:32;;;;;;;4.30;1.63;;;;;;;-145.69;33.29;70304.13;5053890;28;20207;-77
2022/07/18 09:58:03;;;;;;;2.92;1.38;;;;;;;-145.69;34.39;70288.22;5050217;28;20827;-77
2022/07/18 10:00:32;;;;;;;2.08;1.70;;;;;;;-145.69;33.54;70286.25;5057797;28;20246;-78
2022/07/18 10:03:00;;;;;;;4.95;1.55;;;;;;;-145.69;30.96;70292.19;5071351;28;20206;-77
2022/07/18 10:05:35;;;;;;;3.70;1.35;;;;;;;-145.69;30.58;70308.13;5071800;28;20210;-77
2022/07/18 10:08:04;;;;;;;3.17;1.48;;;;;;;-145.69;31.07;70328.00;5073277;28;20206;-77
2022/07/18 10:10:32;;;;;;;3.25;1.63;;;;;;;-145.69;35.54;70339.94;5073145;28;20596;-77
2022/07/18 10:13:00;;;;;;;2.90;1.65;;;;;;;-145.69;33.43;70302.16;5073086;28;20205;-79
2022/07/18 10:15:31;;;;;;;3.35;1.30;;;;;;;-145.69;32.48;70308.13;5072922;28;20205;-77
2022/07/18 10:18:06;;;;;;;2.67;1.30;;;;;;;-145.69;33.28;70278.28;5073032;28;20210;-76
2022/07/18 10:20:37;;;;;;;2.83;1.35;;;;;;;-145.69;32.42;70280.28;5073352;28;20221;-77
2022/07/18 10:23:14;;;;;;;4.70;1.65;;;;;;;-145.69;32.86;70274.31;5070654;28;20222;-77
2022/07/18 10:25:44;;;;;;;1.60;1.25;;;;;;;-145.69;33.05;70256.41;5053198;28;20641;-76
2022/07/18 10:28:12;;;;;;;5.03;1.67;;;;;;;-145.69;33.27;70264.34;5051859;28;20203;-76
2022/07/18 10:30:44;;;;;;;3.33;1.40;;;;;;;-145.69;33.71;70248.44;5052196;28;20238;-76
2022/07/18 10:33:40;;;;;;;5.57;1.60;;;;;;;-145.69;31.56;70248.44;5068068;28;20249;-76
2022/07/18 10:36:14;;;;;;;1.63;1.27;;;;;;;-145.69;30.95;70270.31;5072933;28;20194;-76
2022/07/18 10:39:05;;;;;;;5.93;1.58;;;;;;;-145.69;31.66;70252.41;5072963;28;20202;-76
2022/07/18 10:41:32;;;;;;;2.45;1.48;;;;;;;-145.69;33.75;70252.41;5073087;28;20226;-75
2022/07/18 10:43:59;;;;;;;2.97;1.50;;;;;;;-145.69;32.66;70232.53;5072342;28;20202;-76
2022/07/18 10:46:45;;;;;;;2.70;1.20;;;;;;;-145.69;30.48;70210.66;5072768;28;20199;-76
2022/07/18 10:49:12;;;;;;;5.95;1.55;;;;;;;-145.69;31.22;70216.63;5072449;28;20202;-75
2022/07/18 10:51:40;;;;;;;6.00;1.63;;;;;;;-145.69;33.35;70204.69;5072003;28;20520;-76
2022/07/18 10:54:11;;;;;;;3.95;1.40;;;;;;;-145.69;31.92;70200.69;5070877;28;20214;-75
2022/07/18 10:57:07;;;;;;;1.90;1.27;;;;;;;-145.69;32.27;70206.66;5070887;28;20210;-76
2022/07/18 10:59:35;;;;;;;1.70;1.30;;;;;;;-145.69;32.53;70168.88;5072558;28;20221;-78
2022/07/18 11:02:05;;;;;;;1.60;1.20;;;;;;;-145.69;31.43;70180.81;5072503;28;20309;-75
2022/07/18 11:04:35;;;;;;;1.90;1.50;;;;;;;-145.69;32.60;70172.84;5072562;28;20199;-75
2022/07/18 11:07:09;;;;;;;2.00;1.40;;;;;;;-145.69;34.13;70141.03;5072849;28;20202;-76
2022/07/18 11:09:41;;;;;;;4.68;1.30;;;;;;;-145.69;31.87;70147.00;5073904;28;20557;-77
2022/07/18 11:12:25;;;;;;;3.30;1.40;;;;;;;-145.69;30.81;70139.03;5076679;28;20202;-76
2022/07/18 11:15:06;;;;;;;2.88;1.40;;;;;;;-145.69;32.25;70121.13;5076960;28;20542;-76
2022/07/18 11:17:55;;;;;;;2.45;1.40;;;;;;;-145.69;31.35;70113.16;5076773;28;20221;-76
2022/07/18 11:20:26;;;;;;;2.47;1.30;;;;;;;-145.69;31.11;70103.22;5076621;28;20223;-76
2022/07/18 11:22:54;;;;;;;5.75;1.30;;;;;;;-145.69;31.95;70109.19;5076454;28;20693;-76
2022/07/18 11:25:20;;;;;;;8.48;1.42;;;;;;;-145.69;32.15;70089.31;5076659;28;20190;-76
2022/07/18 11:27:47;;;;;;;2.65;1.38;;;;;;;-145.69;31.19;70063.44;5076550;28;20554;-76